Impacts TAF Board
For situational awareness. Not to be used for flight planning purposes.
IDs:

KDDC - Dodge City Arpt, KS, US

Issued at 1120 UTC 30 Oct 2020
Updated at 1607 UTC 30 Oct 2020
Potential Impact None Slight Moderate High
Time1552Z 30/17Z 30/18Z 30/19Z 30/20Z 30/21Z 30/22Z 30/23Z 31/00Z 31/01Z 31/02Z 31/03Z 31/04Z 31/05Z>>
Type OBS PRVL PRVL PRVL PRVL PRVL PRVL PRVL PRVL PRVL PRVL PRVL PRVL PRVL
VIS 10 >6 >6 >6 >6 >6 >6 >6 >6 >6 >6 >6 >6 >6
CIG -- -- -- -- -- -- -- -- -- -- -- -- -- --
Cover CLR FEW FEW FEW FEW FEW FEW FEW FEW FEW FEW FEW FEW FEW
FltCat VFR VFR VFR VFR VFR VFR VFR VFR VFR VFR VFR VFR VFR VFR
WX -- -- -- -- -- -- -- -- -- -- -- -- -- --
WDir 270 240 240 180 180 180 180 180 180 180 180 180 180 180
WSpd 3 9 9 10 10 10 10 10 10 10 10 10 12 12
WGst -- -- -- -- -- -- -- -- -- -- -- -- 20 20
Raw TAF
KDDC 301120Z 3012/3112 24009KT P6SM FEW250
  FM301900 18010KT P6SM FEW250
  FM310400 18012G20KT P6SM FEW250 WS020/20045KT


Raw METAR
KDDC 301552Z AUTO 27003KT 10SM CLR 12/03 A3024 RMK AO2 SLP236 T01170033
KDDC 301452Z AUTO 27006KT 10SM CLR 08/02 A3024 RMK AO2 SLP241 T00830022 53014
KDDC 301352Z AUTO 24005KT 10SM CLR 05/01 A3021 RMK AO2 SLP236 T00500011

METAR Board
Radar Display
Forecast Discussion
For situational awareness. Not to be used for flight planning purposes.